createdAt,value
2023-08-02T00:00:20.915Z,0.62
2023-08-02T00:02:49.637Z,0.52
2023-08-02T00:05:18.357Z,0.50
2023-08-02T00:07:46.840Z,0.88
2023-08-02T00:10:15.282Z,0.55
2023-08-02T00:12:43.622Z,0.88
2023-08-02T00:15:11.791Z,0.88
2023-08-02T00:17:40.318Z,0.93
2023-08-02T00:20:09.106Z,0.62
2023-08-02T00:22:37.721Z,0.98
2023-08-02T00:25:06.616Z,0.85
2023-08-02T00:27:34.919Z,0.68
2023-08-02T00:30:03.325Z,1.00
2023-08-02T00:32:31.930Z,1.08
2023-08-02T00:35:00.984Z,0.80
2023-08-02T00:37:30.558Z,1.08
2023-08-02T00:39:59.067Z,0.70
2023-08-02T00:42:27.435Z,0.75
2023-08-02T00:44:55.975Z,0.77
2023-08-02T00:47:26.498Z,0.98
2023-08-02T00:49:55.357Z,0.80
2023-08-02T00:52:23.620Z,0.70
2023-08-02T00:54:52.211Z,1.02
2023-08-02T00:57:20.422Z,0.88
2023-08-02T00:59:48.829Z,1.00
2023-08-02T01:02:17.264Z,0.90
2023-08-02T01:04:45.952Z,1.00
2023-08-02T01:07:58.024Z,1.08
2023-08-02T01:10:49.540Z,0.93
2023-08-02T01:13:20.143Z,0.93
2023-08-02T01:15:49.700Z,0.70
2023-08-02T01:18:18.060Z,1.02
2023-08-02T01:20:46.610Z,1.08
2023-08-02T01:23:15.135Z,1.00
2023-08-02T01:25:45.952Z,0.93
2023-08-02T01:28:20.232Z,0.82
2023-08-02T01:30:51.692Z,0.70
2023-08-02T01:33:23.713Z,0.90
2023-08-02T01:35:52.105Z,0.52
2023-08-02T01:38:20.840Z,0.80
2023-08-02T01:40:49.360Z,0.73
2023-08-02T01:43:18.263Z,1.05
2023-08-02T01:45:46.808Z,1.10
2023-08-02T01:48:15.164Z,0.88
2023-08-02T01:50:43.322Z,1.30
2023-08-02T01:53:11.915Z,1.17
2023-08-02T01:55:40.151Z,1.27
2023-08-02T01:58:08.342Z,1.25
2023-08-02T02:00:36.863Z,0.90
2023-08-02T02:03:05.428Z,0.85
2023-08-02T02:05:33.728Z,1.12
2023-08-02T02:08:01.883Z,0.88
2023-08-02T02:10:30.817Z,1.10
2023-08-02T02:12:59.020Z,1.00
2023-08-02T02:15:27.433Z,1.00
2023-08-02T02:17:56.054Z,1.62
2023-08-02T02:20:24.605Z,1.20
2023-08-02T02:22:52.970Z,1.25
2023-08-02T02:25:21.559Z,1.15
2023-08-02T02:27:50.121Z,0.90
2023-08-02T02:30:18.288Z,1.40
2023-08-02T02:32:46.649Z,1.12
2023-08-02T02:35:15.507Z,0.82
2023-08-02T02:37:43.726Z,1.00
2023-08-02T02:40:12.264Z,1.10
2023-08-02T02:42:42.176Z,1.00
2023-08-02T02:45:10.772Z,0.98
2023-08-02T02:47:39.188Z,1.20
2023-08-02T02:50:08.595Z,1.00
2023-08-02T02:52:37.175Z,0.93
2023-08-02T02:55:06.059Z,0.90
2023-08-02T02:57:34.466Z,1.40
2023-08-02T03:00:04.185Z,1.10
2023-08-02T03:02:33.377Z,1.20
2023-08-02T03:05:01.900Z,1.20
2023-08-02T03:07:30.206Z,1.00
2023-08-02T03:09:58.537Z,0.98
2023-08-02T03:12:26.948Z,1.02
2023-08-02T03:14:55.453Z,0.90
2023-08-02T03:17:23.868Z,0.80
2023-08-02T03:19:52.246Z,0.95
2023-08-02T03:22:20.629Z,1.17
2023-08-02T03:24:48.920Z,0.93
2023-08-02T03:27:17.426Z,0.90
2023-08-02T03:29:45.597Z,0.90
2023-08-02T03:32:14.061Z,0.85
2023-08-02T03:34:42.548Z,0.82
2023-08-02T03:37:10.783Z,1.10
2023-08-02T03:39:39.186Z,0.98
2023-08-02T03:42:08.471Z,1.08
2023-08-02T03:44:36.875Z,1.25
2023-08-02T03:47:05.476Z,1.23
2023-08-02T03:49:33.987Z,0.93
2023-08-02T03:52:02.222Z,0.98
2023-08-02T03:54:30.425Z,1.00
2023-08-02T03:56:58.882Z,1.10
2023-08-02T03:59:27.076Z,0.93
2023-08-02T04:01:55.452Z,1.23
2023-08-02T04:04:24.159Z,0.98
2023-08-02T04:06:52.335Z,1.20
2023-08-02T04:09:20.954Z,0.95
2023-08-02T04:11:49.606Z,1.00
2023-08-02T04:14:17.843Z,1.00
2023-08-02T04:16:46.699Z,0.98
2023-08-02T04:19:15.338Z,1.10
2023-08-02T04:21:43.662Z,1.12
2023-08-02T04:24:12.357Z,1.30
2023-08-02T04:26:41.135Z,1.00
2023-08-02T04:29:09.862Z,1.00
2023-08-02T04:31:38.385Z,1.20
2023-08-02T04:34:06.900Z,0.82
2023-08-02T04:36:35.337Z,1.37
2023-08-02T04:39:05.334Z,1.52
2023-08-02T04:41:34.449Z,1.30
2023-08-02T04:44:02.870Z,1.30
2023-08-02T04:46:31.362Z,1.30
2023-08-02T04:48:59.793Z,1.30
2023-08-02T04:51:27.934Z,1.60
2023-08-02T04:53:56.199Z,1.58
2023-08-02T04:56:24.794Z,1.15
2023-08-02T04:58:52.960Z,1.50
2023-08-02T05:01:21.493Z,1.40
2023-08-02T05:03:50.100Z,1.35
2023-08-02T05:06:18.506Z,1.50
2023-08-02T05:08:46.888Z,1.50
2023-08-02T05:11:15.447Z,1.67
2023-08-02T05:13:43.846Z,1.73
2023-08-02T05:16:16.180Z,1.50
2023-08-02T05:18:44.699Z,1.50
2023-08-02T05:21:20.043Z,2.15
2023-08-02T05:23:48.533Z,1.45
2023-08-02T05:26:16.890Z,1.52
2023-08-02T05:28:45.363Z,1.20
2023-08-02T05:31:15.354Z,1.20
2023-08-02T05:33:44.373Z,1.42
2023-08-02T05:36:14.075Z,1.20
2023-08-02T05:38:43.304Z,1.20
2023-08-02T05:41:11.609Z,1.02
2023-08-02T05:43:43.898Z,1.20
2023-08-02T05:46:12.776Z,1.20
2023-08-02T05:48:40.970Z,1.10
2023-08-02T05:51:09.234Z,1.33
2023-08-02T05:53:37.721Z,1.45
2023-08-02T05:56:05.947Z,1.90
2023-08-02T05:58:34.185Z,2.05
2023-08-02T06:01:05.497Z,1.70
2023-08-02T06:03:35.923Z,1.80
2023-08-02T06:06:04.430Z,1.70
2023-08-02T06:08:32.809Z,1.67
2023-08-02T06:11:04.140Z,1.83
2023-08-02T06:13:32.388Z,1.60
2023-08-02T06:16:00.888Z,1.65
2023-08-02T06:18:29.098Z,1.98
2023-08-02T06:20:57.362Z,1.55
2023-08-02T06:23:25.782Z,2.12
2023-08-02T06:25:54.093Z,2.22
2023-08-02T06:28:23.115Z,2.10
2023-08-02T06:30:51.624Z,1.67
2023-08-02T06:33:20.223Z,1.60
2023-08-02T06:35:48.559Z,1.70
2023-08-02T06:38:17.192Z,1.73
2023-08-02T06:40:45.618Z,1.90
2023-08-02T06:43:15.840Z,1.65
2023-08-02T06:45:48.525Z,2.10
2023-08-02T06:48:20.499Z,1.90
2023-08-02T06:50:49.378Z,1.55
2023-08-02T06:53:17.808Z,1.52
2023-08-02T06:55:46.250Z,1.27
2023-08-02T06:58:14.858Z,1.37
2023-08-02T07:00:43.455Z,1.30
2023-08-02T07:03:11.725Z,1.40
2023-08-02T07:05:40.630Z,1.23
2023-08-02T07:08:08.949Z,1.25
2023-08-02T07:10:37.159Z,1.30
2023-08-02T07:13:05.584Z,1.37
2023-08-02T07:15:34.306Z,1.20
2023-08-02T07:18:02.506Z,1.50
2023-08-02T07:20:30.971Z,1.27
2023-08-02T07:22:59.157Z,1.75
2023-08-02T07:25:27.323Z,1.50
2023-08-02T07:27:55.861Z,1.25
2023-08-02T07:30:24.545Z,1.25
2023-08-02T07:32:52.871Z,1.30
2023-08-02T07:35:21.907Z,1.15
2023-08-02T07:37:50.231Z,1.20
2023-08-02T07:40:18.698Z,1.40
2023-08-02T07:42:47.402Z,1.50
2023-08-02T07:45:15.651Z,1.10
2023-08-02T07:47:43.781Z,1.42
2023-08-02T07:50:12.513Z,1.15
2023-08-02T07:52:41.117Z,1.45
2023-08-02T07:55:09.493Z,1.25
2023-08-02T07:57:37.942Z,0.95
2023-08-02T08:00:06.709Z,1.10
2023-08-02T08:02:40.224Z,0.88
2023-08-02T08:05:09.332Z,0.90
2023-08-02T08:07:37.664Z,0.80
2023-08-02T08:10:06.501Z,0.80
2023-08-02T08:12:37.597Z,0.50
2023-08-02T08:15:06.816Z,0.95
2023-08-02T08:17:35.302Z,0.70
2023-08-02T08:20:07.064Z,0.70
2023-08-02T08:22:35.779Z,0.60
2023-08-02T08:25:04.107Z,0.52
2023-08-02T08:27:32.445Z,0.50
2023-08-02T08:30:00.758Z,0.50
2023-08-02T08:32:29.265Z,0.60
2023-08-02T08:34:57.700Z,0.57
2023-08-02T08:37:26.866Z,0.47
2023-08-02T08:40:12.084Z,0.50
2023-08-02T08:42:53.338Z,0.50
2023-08-02T08:45:23.744Z,0.47
2023-08-02T08:47:53.709Z,0.77
2023-08-02T08:50:22.985Z,0.50
2023-08-02T08:52:52.714Z,0.50
2023-08-02T08:55:22.371Z,0.50
2023-08-02T08:57:51.655Z,0.47
2023-08-02T09:00:20.539Z,0.68
2023-08-02T09:02:49.145Z,0.68
2023-08-02T09:05:17.950Z,0.70
2023-08-02T09:07:46.617Z,0.50
2023-08-02T09:10:14.905Z,0.70
2023-08-02T09:12:45.870Z,0.55
2023-08-02T09:15:16.009Z,0.70
2023-08-02T09:17:50.609Z,0.60
2023-08-02T09:20:22.035Z,0.60
2023-08-02T09:22:50.749Z,0.70
2023-08-02T09:25:28.389Z,0.80
2023-08-02T09:28:00.087Z,0.80
2023-08-02T09:30:30.753Z,0.70
2023-08-02T09:33:01.476Z,0.60
2023-08-02T09:35:49.005Z,0.60
2023-08-02T09:38:18.008Z,0.90
2023-08-02T09:45:49.766Z,0.60
2023-08-02T09:48:17.979Z,0.73
2023-08-02T09:50:54.958Z,0.70
2023-08-02T09:53:24.943Z,0.75
2023-08-02T09:55:57.563Z,0.73
2023-08-02T09:58:27.149Z,0.75
2023-08-02T10:00:55.984Z,0.88
2023-08-02T10:03:27.871Z,0.60
2023-08-02T10:05:59.414Z,0.70
2023-08-02T10:08:31.155Z,0.70
2023-08-02T10:11:01.230Z,0.62
2023-08-02T10:13:34.064Z,0.82
2023-08-02T10:16:04.375Z,0.70
2023-08-02T10:18:35.465Z,0.70
2023-08-02T10:21:04.914Z,0.65
2023-08-02T10:23:34.619Z,0.62
2023-08-02T10:26:03.687Z,0.70
2023-08-02T10:28:33.294Z,0.82
2023-08-02T10:31:04.106Z,0.80
2023-08-02T10:33:32.338Z,0.90
2023-08-02T10:36:00.541Z,0.68
2023-08-02T10:38:41.300Z,0.93
2023-08-02T10:41:19.883Z,0.70
2023-08-02T10:43:54.362Z,0.62
2023-08-02T10:46:27.956Z,0.70
2023-08-02T10:49:17.223Z,0.77
2023-08-02T10:51:46.650Z,0.98
2023-08-02T10:54:27.090Z,0.75
2023-08-02T10:56:57.139Z,0.90
2023-08-02T10:59:25.534Z,0.80
2023-08-02T11:02:10.874Z,0.80
2023-08-02T11:04:46.143Z,0.80
2023-08-02T11:07:20.053Z,1.10
2023-08-02T11:09:53.219Z,0.70
2023-08-02T11:12:23.597Z,0.88
2023-08-02T11:14:53.562Z,0.82
2023-08-02T11:22:36.754Z,0.70
2023-08-02T11:25:08.031Z,0.80
2023-08-02T11:30:09.318Z,0.77
2023-08-02T11:32:48.124Z,0.70
2023-08-02T11:35:20.698Z,0.62
2023-08-02T11:37:49.117Z,0.70
2023-08-02T11:42:55.173Z,0.70
2023-08-02T11:45:32.476Z,0.73
2023-08-02T11:50:34.470Z,0.60
2023-08-02T11:53:10.052Z,0.52
2023-08-02T11:55:41.237Z,0.57
2023-08-02T11:58:10.401Z,0.68
2023-08-02T12:00:39.254Z,0.60
2023-08-02T12:03:17.694Z,0.50
2023-08-02T12:05:46.289Z,0.70
2023-08-02T12:08:18.639Z,0.60
2023-08-02T12:10:48.665Z,0.68
2023-08-02T12:13:19.158Z,0.57
2023-08-02T12:16:04.828Z,0.65
2023-08-02T12:18:33.410Z,0.77
2023-08-02T12:21:16.136Z,0.80
2023-08-02T12:23:44.686Z,0.82
2023-08-02T12:26:13.010Z,0.60
2023-08-02T12:28:47.959Z,0.70
2023-08-02T12:31:18.164Z,0.70
2023-08-02T12:33:46.489Z,0.50
2023-08-02T12:36:31.760Z,0.70
2023-08-02T12:39:00.368Z,0.68
2023-08-02T12:41:31.705Z,0.93
2023-08-02T12:44:04.260Z,0.60
2023-08-02T12:46:34.044Z,0.55
2023-08-02T12:49:02.711Z,1.02
2023-08-02T12:51:30.975Z,0.60
2023-08-02T12:54:00.247Z,0.88
2023-08-02T12:56:28.894Z,0.80
2023-08-02T12:58:57.112Z,0.70
2023-08-02T13:01:25.396Z,0.60
2023-08-02T13:03:54.345Z,0.77
2023-08-02T13:06:22.529Z,0.50
2023-08-02T13:08:51.329Z,0.60
2023-08-02T13:11:20.889Z,0.70
2023-08-02T13:13:48.984Z,0.62
2023-08-02T13:16:17.372Z,0.60
2023-08-02T13:18:46.331Z,0.75
2023-08-02T13:21:14.719Z,0.60
2023-08-02T13:23:43.082Z,0.50
2023-08-02T13:26:11.676Z,0.55
2023-08-02T13:28:39.888Z,0.65
2023-08-02T13:31:08.623Z,0.50
2023-08-02T13:33:37.208Z,0.60
2023-08-02T13:36:05.775Z,0.60
2023-08-02T13:38:33.979Z,0.50
2023-08-02T13:41:03.053Z,0.50
2023-08-02T13:43:31.288Z,0.50
2023-08-02T13:45:59.693Z,0.50
2023-08-02T13:48:28.415Z,0.60
2023-08-02T13:50:56.581Z,0.50
2023-08-02T13:53:25.099Z,0.70
2023-08-02T13:55:53.657Z,0.62
2023-08-02T13:58:21.896Z,0.52
2023-08-02T14:00:50.298Z,0.50
2023-08-02T14:03:19.380Z,0.60
2023-08-02T14:05:47.558Z,0.60
2023-08-02T14:08:16.814Z,0.60
2023-08-02T14:10:47.529Z,0.47
2023-08-02T14:13:17.337Z,0.80
2023-08-02T14:15:45.936Z,0.70
2023-08-02T14:18:14.260Z,0.60
2023-08-02T14:20:42.365Z,0.60
2023-08-02T14:23:10.912Z,0.75
2023-08-02T14:25:39.151Z,0.60
2023-08-02T14:28:09.636Z,0.75
2023-08-02T14:30:38.933Z,0.70
2023-08-02T14:33:07.256Z,0.73
2023-08-02T14:35:35.492Z,0.60
2023-08-02T14:38:06.966Z,0.50
2023-08-02T14:40:35.541Z,0.60
2023-08-02T14:43:04.145Z,0.90
2023-08-02T14:45:32.583Z,0.70
2023-08-02T14:48:00.884Z,0.75
2023-08-02T14:50:29.463Z,0.60
2023-08-02T14:52:57.638Z,0.80
2023-08-02T14:55:26.290Z,0.57
2023-08-02T14:57:54.856Z,0.50
2023-08-02T15:00:23.150Z,0.60
2023-08-02T15:02:51.506Z,0.62
2023-08-02T15:05:21.391Z,0.60
2023-08-02T15:07:49.840Z,0.50
2023-08-02T15:10:18.276Z,0.85
2023-08-02T15:12:47.075Z,0.70
2023-08-02T15:15:15.875Z,0.75
2023-08-02T15:17:45.449Z,0.77
2023-08-02T15:20:13.983Z,0.75
2023-08-02T15:22:42.277Z,0.70
2023-08-02T15:25:10.816Z,0.62
2023-08-02T15:27:39.327Z,0.55
2023-08-02T15:30:08.299Z,0.57
2023-08-02T15:32:36.636Z,0.52
2023-08-02T15:35:05.308Z,0.60
2023-08-02T15:37:33.652Z,0.50
2023-08-02T15:40:02.007Z,0.70
2023-08-02T15:42:30.576Z,0.60
2023-08-02T15:45:00.836Z,0.70
2023-08-02T15:47:33.447Z,0.50
2023-08-02T15:50:01.929Z,0.50
2023-08-02T15:52:30.527Z,0.70
2023-08-02T15:54:58.789Z,0.68
2023-08-02T15:57:27.796Z,0.50
2023-08-02T15:59:56.320Z,0.50
2023-08-02T16:02:24.580Z,0.50
2023-08-02T16:04:53.221Z,0.65
2023-08-02T16:07:22.138Z,0.70
2023-08-02T16:09:50.459Z,0.52
2023-08-02T16:12:19.900Z,0.60
2023-08-02T16:14:48.108Z,0.68
2023-08-02T16:17:16.628Z,0.70
2023-08-02T16:19:45.593Z,0.55
2023-08-02T16:22:14.205Z,0.50
2023-08-02T16:24:42.493Z,0.60
2023-08-02T16:27:10.870Z,0.55
2023-08-02T16:29:39.129Z,0.70
2023-08-02T16:32:07.420Z,0.50
2023-08-02T16:34:35.922Z,0.60
2023-08-02T16:37:04.419Z,0.73
2023-08-02T16:39:32.501Z,0.55
2023-08-02T16:42:00.936Z,0.50
2023-08-02T16:44:29.330Z,0.60
2023-08-02T16:46:57.590Z,0.60
2023-08-02T16:49:26.193Z,0.60
2023-08-02T16:51:54.480Z,0.60
2023-08-02T16:54:23.068Z,0.60
2023-08-02T16:56:52.573Z,0.80
2023-08-02T16:59:21.598Z,0.80
2023-08-02T17:01:50.255Z,0.55
2023-08-02T17:04:18.969Z,0.70
2023-08-02T17:06:47.235Z,0.77
2023-08-02T17:09:15.614Z,0.43
2023-08-02T17:11:45.040Z,0.70
2023-08-02T17:14:13.775Z,0.62
2023-08-02T17:16:42.055Z,0.60
2023-08-02T17:19:10.905Z,0.60
2023-08-02T17:21:39.289Z,0.68
2023-08-02T17:24:07.638Z,0.57
2023-08-02T17:26:36.166Z,0.57
2023-08-02T17:29:04.431Z,0.60
2023-08-02T17:31:32.648Z,0.70
2023-08-02T17:34:01.426Z,0.68
2023-08-02T17:36:30.212Z,0.70
2023-08-02T17:38:58.469Z,0.68
2023-08-02T17:41:27.859Z,0.70
2023-08-02T17:43:56.494Z,0.93
2023-08-02T17:46:26.271Z,0.75
2023-08-02T17:48:54.944Z,0.60
2023-08-02T17:51:23.349Z,0.60
2023-08-02T17:53:54.013Z,0.70
2023-08-02T17:56:22.766Z,0.50
2023-08-02T17:58:51.108Z,0.70
2023-08-02T18:01:23.049Z,0.70
2023-08-02T18:03:52.347Z,0.80
2023-08-02T18:06:23.174Z,1.00
2023-08-02T18:08:51.801Z,0.90
2023-08-02T18:11:23.025Z,0.75
2023-08-02T18:13:52.173Z,0.80
2023-08-02T18:16:20.446Z,0.85
2023-08-02T18:18:48.882Z,0.70
2023-08-02T18:21:17.786Z,0.80
2023-08-02T18:23:46.072Z,0.60
2023-08-02T18:26:16.213Z,0.90
2023-08-02T18:28:44.828Z,0.82
2023-08-02T18:31:13.182Z,0.70
2023-08-02T18:33:41.562Z,0.82
2023-08-02T18:36:14.854Z,0.75
2023-08-02T18:38:43.910Z,0.90
2023-08-02T18:41:23.664Z,0.70
2023-08-02T18:43:53.095Z,0.90
2023-08-02T18:46:25.119Z,0.90
2023-08-02T18:48:53.675Z,0.80
2023-08-02T18:51:23.140Z,0.80
2023-08-02T18:53:53.290Z,0.70
2023-08-02T18:56:23.822Z,0.88
2023-08-02T18:58:53.059Z,0.77
2023-08-02T19:01:21.844Z,0.90
2023-08-02T19:03:51.969Z,0.90
2023-08-02T19:06:20.444Z,0.80
2023-08-02T19:08:50.883Z,0.90
2023-08-02T19:11:24.739Z,0.80
2023-08-02T19:13:53.841Z,0.60
2023-08-02T19:16:23.183Z,1.00
2023-08-02T19:18:51.841Z,0.80
2023-08-02T19:21:20.541Z,0.80
2023-08-02T19:23:48.832Z,0.70
2023-08-02T19:26:18.149Z,0.70
2023-08-02T19:28:47.307Z,0.73
2023-08-02T19:31:15.725Z,0.60
2023-08-02T19:33:46.584Z,0.60
2023-08-02T19:36:20.405Z,0.70
2023-08-02T19:38:49.713Z,0.90
2023-08-02T19:41:30.428Z,0.62
2023-08-02T19:43:59.840Z,0.68
2023-08-02T19:46:28.762Z,0.52
2023-08-02T19:48:58.281Z,0.80
2023-08-02T19:51:28.036Z,0.50
2023-08-02T19:53:56.786Z,0.62
2023-08-02T19:56:25.081Z,0.65
2023-08-02T19:58:59.274Z,0.80
2023-08-02T20:01:30.046Z,0.47
2023-08-02T20:03:58.997Z,0.77
2023-08-02T20:06:28.146Z,0.50
2023-08-02T20:08:56.623Z,0.80
2023-08-02T20:11:25.206Z,0.73
2023-08-02T20:13:54.386Z,0.70
2023-08-02T20:16:24.466Z,0.60
2023-08-02T20:18:54.538Z,0.60
2023-08-02T20:21:24.576Z,0.60
2023-08-02T20:23:59.373Z,0.60
2023-08-02T20:26:28.194Z,0.57
2023-08-02T20:28:57.492Z,0.70
2023-08-02T20:31:29.000Z,0.90
2023-08-02T20:33:57.890Z,0.70
2023-08-02T20:36:26.169Z,0.60
2023-08-02T20:38:56.196Z,0.70
2023-08-02T20:41:27.502Z,0.80
2023-08-02T20:43:57.763Z,0.50
2023-08-02T20:46:28.557Z,0.60
2023-08-02T20:48:58.976Z,0.60
2023-08-02T20:51:39.049Z,0.60
2023-08-02T20:54:09.281Z,0.50
2023-08-02T20:56:38.735Z,0.50
2023-08-02T20:59:15.368Z,0.68
2023-08-02T21:01:45.770Z,0.60
2023-08-02T21:04:15.009Z,0.75
2023-08-02T21:06:57.196Z,0.60
2023-08-02T21:09:29.763Z,0.70
2023-08-02T21:11:58.185Z,0.50
2023-08-02T21:14:29.000Z,0.50
2023-08-02T21:16:57.756Z,0.57
2023-08-02T21:19:27.795Z,0.60
2023-08-02T21:21:59.939Z,0.50
2023-08-02T21:24:28.590Z,0.50
2023-08-02T21:26:56.814Z,0.55
2023-08-02T21:29:25.083Z,0.73
2023-08-02T21:31:53.833Z,0.62
2023-08-02T21:34:23.129Z,0.70
2023-08-02T21:36:51.278Z,0.60
2023-08-02T21:39:20.736Z,0.50
2023-08-02T21:41:48.973Z,0.52
2023-08-02T21:44:19.287Z,0.60
2023-08-02T21:46:48.084Z,0.60
2023-08-02T21:49:16.250Z,0.70
2023-08-02T21:51:44.736Z,0.70
2023-08-02T21:54:13.662Z,0.60
2023-08-02T21:56:41.844Z,0.70
2023-08-02T21:59:09.935Z,0.65
2023-08-02T22:01:39.975Z,0.50
2023-08-02T22:04:09.235Z,0.70
2023-08-02T22:06:37.411Z,0.60
2023-08-02T22:09:06.774Z,1.05
2023-08-02T22:11:35.259Z,0.65
2023-08-02T22:14:03.467Z,0.50
2023-08-02T22:16:34.002Z,0.90
2023-08-02T22:19:02.453Z,1.08
2023-08-02T22:21:30.717Z,0.90
2023-08-02T22:23:59.079Z,1.05
2023-08-02T22:26:27.513Z,0.62
2023-08-02T22:28:55.632Z,0.75
2023-08-02T22:31:23.955Z,0.90
2023-08-02T22:33:52.692Z,0.90
2023-08-02T22:36:20.889Z,0.80
2023-08-02T22:38:49.833Z,0.70
2023-08-02T22:41:18.511Z,0.80
2023-08-02T22:43:47.189Z,0.70
2023-08-02T22:46:15.486Z,1.10
2023-08-02T22:51:15.228Z,0.73
2023-08-02T22:53:44.041Z,0.88
2023-08-02T22:56:12.331Z,1.00
2023-08-02T22:58:40.487Z,0.80
2023-08-02T23:01:11.157Z,0.80
2023-08-02T23:03:44.248Z,0.90
2023-08-02T23:06:22.451Z,0.80
2023-08-02T23:08:50.768Z,0.93
2023-08-02T23:11:21.070Z,0.85
2023-08-02T23:13:51.881Z,0.65
2023-08-02T23:16:23.165Z,0.80
2023-08-02T23:18:53.081Z,0.57
2023-08-02T23:21:21.635Z,0.62
2023-08-02T23:23:51.460Z,0.88
2023-08-02T23:26:28.755Z,0.70
2023-08-02T23:29:01.036Z,0.77
2023-08-02T23:31:29.692Z,1.00
2023-08-02T23:34:00.419Z,0.88
2023-08-02T23:36:28.832Z,1.00
2023-08-02T23:38:57.272Z,0.73
2023-08-02T23:41:25.800Z,0.75
2023-08-02T23:43:53.948Z,0.80
2023-08-02T23:46:22.092Z,0.80
2023-08-02T23:48:50.538Z,0.70
2023-08-02T23:51:18.647Z,1.00
2023-08-02T23:53:46.895Z,0.88
2023-08-02T23:56:15.748Z,0.90
2023-08-02T23:58:43.840Z,0.80
